CheckWX is a tool to help pilots better visualize weather data.  It is not intended as a substitute for an official pre-flight weather briefing.

05:01:46 UTC

KHND METAR
Henderson Executive Airport
Las Vegas, Nevada, USA
Current

6 mins ago

KHND 180456Z AUTO 21008KT 10SM CLR 30/M08 A2980 RMK AO2 SLP073 T03001078 $
Observed
Aug-18 @ 04:56 UTC
Wind
  • 210° at 8 KTS
Visibility
10 SM
Flight Rules
VFR
Cloud Levels
  • Clear skies
Temperature
30°C / 86°F
Dewpoint
-8°C / 18°F
Humidity
8%
Altimeter
29.8" Hg
Pressure
1009.12 hPa
Previous

1 hour ago

KHND 180356Z AUTO 21010KT 10SM CLR 32/M07 A2979 RMK AO2 SLP068 T03171072 $
Observed
Aug-18 @ 03:56 UTC
Wind
  • 210° at 10 KTS
Visibility
10 SM
Flight Rules
VFR
Cloud Levels
  • Clear skies
Temperature
32°C / 90°F
Dewpoint
-7°C / 19°F
Humidity
7%
Altimeter
29.79" Hg
Pressure
1008.82 hPa
Previous

2 hours ago

KHND 180256Z 20007KT 10SM CLR 34/M07 A2977 RMK AO2 SLP061 T03441067 53001 $
Observed
Aug-18 @ 02:56 UTC
Wind
  • 200° at 7 KTS
Visibility
10 SM
Flight Rules
VFR
Cloud Levels
  • Clear skies
Temperature
34°C / 93°F
Dewpoint
-7°C / 19°F
Humidity
7%
Altimeter
29.77" Hg
Pressure
1008.12 hPa